createdAt,value
2023-03-07T00:00:12.800Z,9.07
2023-03-07T00:02:14.901Z,9.08
2023-03-07T00:04:17.102Z,9.04
2023-03-07T00:06:19.241Z,9.02
2023-03-07T00:08:21.299Z,8.89
2023-03-07T00:10:23.371Z,9.01
2023-03-07T00:12:25.688Z,9.09
2023-03-07T00:14:27.836Z,9.09
2023-03-07T00:16:29.973Z,8.92
2023-03-07T00:18:32.879Z,8.99
2023-03-07T00:20:34.928Z,9.04
2023-03-07T00:22:37.811Z,9.03
2023-03-07T00:24:40.009Z,8.92
2023-03-07T00:26:42.148Z,8.82
2023-03-07T00:28:47.426Z,8.81
2023-03-07T00:30:49.498Z,8.88
2023-03-07T00:32:51.453Z,8.87
2023-03-07T00:34:54.776Z,8.89
2023-03-07T00:36:56.892Z,8.88
2023-03-07T00:38:59.081Z,9.01
2023-03-07T00:41:05.317Z,8.97
2023-03-07T00:43:07.301Z,8.92
2023-03-07T00:45:11.064Z,8.86
2023-03-07T00:47:13.183Z,8.95
2023-03-07T00:49:15.349Z,8.95
2023-03-07T00:51:19.129Z,8.94
2023-03-07T00:53:21.842Z,8.94
2023-03-07T00:55:23.854Z,8.84
2023-03-07T00:57:25.921Z,8.90
2023-03-07T00:59:29.448Z,8.93
2023-03-07T01:01:31.622Z,8.86
2023-03-07T01:03:34.645Z,8.92
2023-03-07T01:05:40.205Z,8.98
2023-03-07T01:07:42.406Z,8.93
2023-03-07T01:09:44.454Z,8.87
2023-03-07T01:11:46.524Z,8.88
2023-03-07T01:13:48.715Z,8.77
2023-03-07T01:15:50.803Z,8.81
2023-03-07T01:17:52.811Z,8.87
2023-03-07T01:19:54.870Z,8.84
2023-03-07T01:21:57.028Z,8.90
2023-03-07T01:23:59.277Z,8.88
2023-03-07T01:26:01.380Z,8.95
2023-03-07T01:28:04.255Z,8.95
2023-03-07T01:30:07.616Z,9.03
2023-03-07T01:32:09.824Z,9.06
2023-03-07T01:34:12.144Z,8.97
2023-03-07T01:36:19.514Z,8.93
2023-03-07T01:38:21.660Z,9.00
2023-03-07T01:40:25.195Z,8.93
2023-03-07T01:42:30.940Z,8.82
2023-03-07T01:44:55.860Z,8.77
2023-03-07T01:47:00.773Z,8.67
2023-03-07T01:49:09.817Z,8.61
2023-03-07T01:51:12.130Z,8.58
2023-03-07T01:53:15.984Z,8.36
2023-03-07T01:55:23.070Z,8.43
2023-03-07T01:57:31.632Z,8.35
2023-03-07T01:59:37.316Z,8.29
2023-03-07T02:01:39.863Z,8.23
2023-03-07T02:03:45.337Z,8.23
2023-03-07T02:05:53.564Z,8.19
2023-03-07T02:07:58.989Z,8.15
2023-03-07T02:10:02.214Z,8.02
2023-03-07T02:12:04.937Z,8.02
2023-03-07T02:14:07.148Z,7.97
2023-03-07T02:16:09.694Z,7.82
2023-03-07T02:18:16.150Z,7.82
2023-03-07T02:20:24.453Z,7.73
2023-03-07T02:22:27.593Z,7.66
2023-03-07T02:24:37.343Z,7.50
2023-03-07T02:26:44.459Z,7.50
2023-03-07T02:28:48.250Z,7.47
2023-03-07T02:30:55.798Z,7.47
2023-03-07T02:32:57.953Z,7.47
2023-03-07T02:35:00.009Z,7.42
2023-03-07T02:37:05.242Z,7.43
2023-03-07T02:39:07.297Z,7.34
2023-03-07T02:41:12.142Z,7.25
2023-03-07T02:43:14.646Z,7.11
2023-03-07T02:45:19.482Z,7.14
2023-03-07T02:47:21.536Z,7.12
2023-03-07T02:49:23.874Z,7.15
2023-03-07T02:51:25.902Z,7.13
2023-03-07T02:53:28.549Z,7.10
2023-03-07T02:55:31.075Z,7.16
2023-03-07T02:57:33.318Z,7.14
2023-03-07T02:59:35.326Z,7.14
2023-03-07T03:01:37.600Z,7.15
2023-03-07T03:03:39.822Z,7.09
2023-03-07T03:05:41.884Z,7.11
2023-03-07T03:07:43.938Z,7.08
2023-03-07T03:09:46.093Z,7.07
2023-03-07T03:11:48.253Z,7.06
2023-03-07T03:13:50.350Z,7.04
2023-03-07T03:15:56.938Z,7.04
2023-03-07T03:17:59.101Z,7.03
2023-03-07T03:20:01.218Z,7.07
2023-03-07T03:22:03.873Z,7.08
2023-03-07T03:24:08.189Z,7.13
2023-03-07T03:26:11.800Z,7.06
2023-03-07T03:28:13.807Z,7.06
2023-03-07T03:30:16.231Z,7.05
2023-03-07T03:32:18.241Z,7.02
2023-03-07T03:34:20.487Z,6.98
2023-03-07T03:36:26.520Z,6.93
2023-03-07T03:38:28.542Z,6.80
2023-03-07T03:40:31.562Z,6.83
2023-03-07T03:42:33.632Z,6.78
2023-03-07T03:44:35.778Z,6.75
2023-03-07T03:46:38.277Z,6.75
2023-03-07T03:48:41.014Z,6.67
2023-03-07T03:50:43.119Z,6.59
2023-03-07T03:52:45.473Z,6.52
2023-03-07T03:54:47.425Z,6.58
2023-03-07T03:56:49.473Z,6.61
2023-03-07T03:58:53.987Z,6.51
2023-03-07T04:00:56.447Z,6.56
2023-03-07T04:02:58.649Z,6.57
2023-03-07T04:05:00.838Z,6.56
2023-03-07T04:07:04.894Z,6.54
2023-03-07T04:09:07.115Z,6.56
2023-03-07T04:11:09.373Z,6.51
2023-03-07T04:13:11.467Z,6.49
2023-03-07T04:15:13.625Z,6.49
2023-03-07T04:17:15.657Z,6.47
2023-03-07T04:19:18.476Z,6.42
2023-03-07T04:21:21.756Z,6.38
2023-03-07T04:23:25.141Z,6.34
2023-03-07T04:25:27.264Z,6.32
2023-03-07T04:27:29.633Z,6.29
2023-03-07T04:29:31.833Z,6.32
2023-03-07T04:31:33.990Z,6.35
2023-03-07T04:33:36.089Z,6.33
2023-03-07T04:35:38.294Z,6.32
2023-03-07T04:37:40.389Z,6.26
2023-03-07T04:39:42.458Z,6.26
2023-03-07T04:41:44.937Z,6.31
2023-03-07T04:43:47.057Z,6.24
2023-03-07T04:45:49.124Z,6.16
2023-03-07T04:47:51.160Z,6.17
2023-03-07T04:49:53.849Z,6.23
2023-03-07T04:51:56.013Z,6.21
2023-03-07T04:53:58.073Z,6.21
2023-03-07T04:56:01.685Z,6.27
2023-03-07T04:58:04.201Z,6.27
2023-03-07T05:00:09.559Z,6.29
2023-03-07T05:02:13.797Z,6.34
2023-03-07T05:04:15.929Z,6.29
2023-03-07T05:06:18.025Z,6.29
2023-03-07T05:08:20.999Z,6.26
2023-03-07T05:10:22.983Z,6.30
2023-03-07T05:12:25.735Z,6.28
2023-03-07T05:14:27.790Z,6.28
2023-03-07T05:16:30.239Z,6.28
2023-03-07T05:18:32.348Z,6.26
2023-03-07T05:20:34.862Z,6.24
2023-03-07T05:22:37.243Z,6.24
2023-03-07T05:24:39.431Z,6.28
2023-03-07T05:26:41.756Z,6.32
2023-03-07T05:28:43.770Z,6.32
2023-03-07T05:30:47.308Z,6.32
2023-03-07T05:32:49.860Z,6.36
2023-03-07T05:34:52.064Z,6.34
2023-03-07T05:36:54.141Z,6.34
2023-03-07T05:38:57.258Z,6.34
2023-03-07T05:40:59.419Z,6.34
2023-03-07T05:43:01.527Z,6.35
2023-03-07T05:45:04.456Z,6.36
2023-03-07T05:47:06.666Z,6.33
2023-03-07T05:49:09.455Z,6.33
2023-03-07T05:51:11.534Z,6.40
2023-03-07T05:53:13.575Z,6.33
2023-03-07T05:55:16.010Z,6.27
2023-03-07T05:57:18.017Z,6.24
2023-03-07T05:59:20.103Z,6.24
2023-03-07T06:01:22.229Z,6.29
2023-03-07T06:03:24.246Z,6.29
2023-03-07T06:05:26.221Z,6.29
2023-03-07T06:07:28.307Z,6.30
2023-03-07T06:09:30.312Z,6.36
2023-03-07T06:11:33.589Z,6.39
2023-03-07T06:13:35.641Z,6.41
2023-03-07T06:15:37.613Z,6.42
2023-03-07T06:17:40.762Z,6.42
2023-03-07T06:19:42.877Z,6.38
2023-03-07T06:21:45.027Z,6.39
2023-03-07T06:23:47.181Z,6.43
2023-03-07T06:25:49.417Z,6.36
2023-03-07T06:27:51.709Z,6.17
2023-03-07T06:29:54.022Z,6.20
2023-03-07T06:31:56.314Z,6.26
2023-03-07T06:33:58.473Z,6.31
2023-03-07T06:36:00.713Z,6.30
2023-03-07T06:38:03.127Z,6.35
2023-03-07T06:40:06.660Z,6.27
2023-03-07T06:42:09.334Z,6.30
2023-03-07T06:44:11.425Z,6.33
2023-03-07T06:46:13.604Z,6.32
2023-03-07T06:48:15.790Z,6.37
2023-03-07T06:50:26.436Z,6.42
2023-03-07T06:52:32.368Z,6.44
2023-03-07T06:54:34.433Z,6.40
2023-03-07T06:56:36.726Z,6.36
2023-03-07T06:58:39.040Z,6.42
2023-03-07T07:00:41.178Z,6.42
2023-03-07T07:02:43.478Z,6.40
2023-03-07T07:04:45.759Z,6.39
2023-03-07T07:06:48.125Z,6.52
2023-03-07T07:08:50.265Z,6.55
2023-03-07T07:10:53.039Z,6.46
2023-03-07T07:12:56.861Z,6.46
2023-03-07T07:15:02.410Z,6.41
2023-03-07T07:17:04.623Z,6.47
2023-03-07T07:19:06.966Z,6.54
2023-03-07T07:21:09.229Z,6.54
2023-03-07T07:23:11.472Z,6.56
2023-03-07T07:25:13.807Z,6.61
2023-03-07T07:27:20.090Z,6.62
2023-03-07T07:29:23.094Z,6.65
2023-03-07T07:31:25.244Z,6.66
2023-03-07T07:33:27.916Z,6.66
2023-03-07T07:35:29.946Z,6.70
2023-03-07T07:37:32.119Z,6.72
2023-03-07T07:39:56.196Z,6.71
2023-03-07T07:41:58.150Z,6.65
2023-03-07T07:44:00.771Z,6.63
2023-03-07T07:46:05.451Z,6.69
2023-03-07T07:48:10.052Z,6.71
2023-03-07T07:50:14.343Z,6.77
2023-03-07T07:52:18.479Z,6.63
2023-03-07T07:54:20.610Z,6.74
2023-03-07T07:56:23.959Z,6.69
2023-03-07T07:58:26.608Z,6.74
2023-03-07T08:00:29.481Z,6.66
2023-03-07T08:02:31.836Z,6.58
2023-03-07T08:04:35.881Z,6.60
2023-03-07T08:06:38.267Z,6.65
2023-03-07T08:08:40.920Z,6.68
2023-03-07T08:10:44.583Z,6.68
2023-03-07T08:12:53.481Z,6.65
2023-03-07T08:14:55.935Z,6.57
2023-03-07T08:16:58.281Z,6.67
2023-03-07T08:19:01.408Z,6.70
2023-03-07T08:21:03.722Z,6.56
2023-03-07T08:23:06.120Z,6.61
2023-03-07T08:25:16.188Z,6.60
2023-03-07T08:27:18.655Z,6.60
2023-03-07T08:29:21.237Z,6.69
2023-03-07T08:31:25.457Z,6.68
2023-03-07T08:33:27.798Z,6.75
2023-03-07T08:35:31.666Z,6.81
2023-03-07T08:37:36.607Z,6.88
2023-03-07T08:39:39.164Z,6.90
2023-03-07T08:41:41.966Z,6.92
2023-03-07T08:43:44.335Z,6.90
2023-03-07T08:45:46.812Z,6.89
2023-03-07T08:47:49.453Z,6.86
2023-03-07T08:49:51.848Z,6.87
2023-03-07T08:51:54.499Z,6.96
2023-03-07T08:53:59.663Z,7.08
2023-03-07T08:56:06.609Z,7.13
2023-03-07T08:58:09.402Z,7.17
2023-03-07T09:00:13.014Z,7.17
2023-03-07T09:02:18.760Z,7.20
2023-03-07T09:04:21.701Z,7.20
2023-03-07T09:06:24.524Z,7.04
2023-03-07T09:08:27.474Z,7.07
2023-03-07T09:10:30.620Z,7.02
2023-03-07T09:12:36.718Z,7.14
2023-03-07T09:14:39.492Z,7.15
2023-03-07T09:16:41.916Z,7.21
2023-03-07T09:18:44.683Z,7.26
2023-03-07T09:20:47.072Z,7.26
2023-03-07T09:22:52.378Z,7.18
2023-03-07T09:24:57.199Z,7.19
2023-03-07T09:27:00.035Z,7.14
2023-03-07T09:29:02.307Z,7.22
2023-03-07T09:31:09.135Z,7.23
2023-03-07T09:33:12.039Z,7.25
2023-03-07T09:35:14.763Z,7.14
2023-03-07T09:37:20.294Z,7.23
2023-03-07T09:39:22.678Z,7.20
2023-03-07T09:41:34.289Z,7.30
2023-03-07T09:43:45.248Z,7.33
2023-03-07T09:45:56.664Z,7.36
2023-03-07T09:47:59.801Z,7.38
2023-03-07T09:50:04.325Z,7.42
2023-03-07T09:52:16.009Z,7.48
2023-03-07T09:54:27.942Z,7.47
2023-03-07T09:56:38.600Z,7.46
2023-03-07T09:58:45.496Z,7.52
2023-03-07T10:00:54.365Z,7.55
2023-03-07T10:03:00.620Z,7.56
2023-03-07T10:05:09.218Z,7.53
2023-03-07T10:07:15.886Z,7.60
2023-03-07T10:09:22.674Z,7.68
2023-03-07T10:11:46.787Z,7.70
2023-03-07T10:13:59.084Z,7.69
2023-03-07T10:16:10.561Z,7.74
2023-03-07T10:18:16.626Z,7.82
2023-03-07T10:20:25.202Z,7.80
2023-03-07T10:22:36.040Z,7.92
2023-03-07T10:24:43.642Z,7.92
2023-03-07T10:26:58.167Z,8.01
2023-03-07T10:29:09.497Z,8.07
2023-03-07T10:31:21.354Z,7.95
2023-03-07T10:33:25.232Z,8.12
2023-03-07T10:35:34.279Z,8.11
2023-03-07T10:37:44.305Z,8.09
2023-03-07T10:39:52.464Z,8.08
2023-03-07T10:41:55.789Z,8.09
2023-03-07T10:43:58.918Z,8.03
2023-03-07T10:46:22.359Z,8.12
2023-03-07T10:48:28.811Z,8.19
2023-03-07T10:50:36.525Z,8.22
2023-03-07T10:52:43.368Z,8.21
2023-03-07T10:54:45.785Z,8.23
2023-03-07T10:57:03.004Z,8.34
2023-03-07T10:59:10.040Z,8.34
2023-03-07T11:01:16.817Z,8.34
2023-03-07T11:03:25.955Z,8.43
2023-03-07T11:05:32.994Z,8.44
2023-03-07T11:07:36.840Z,8.37
2023-03-07T11:09:47.913Z,8.32
2023-03-07T11:11:51.156Z,8.35
2023-03-07T11:13:59.718Z,8.43
2023-03-07T11:16:12.025Z,8.48
2023-03-07T11:18:20.748Z,8.54
2023-03-07T11:20:25.850Z,8.56
2023-03-07T11:22:34.429Z,8.59
2023-03-07T11:24:40.266Z,8.57
2023-03-07T11:26:42.524Z,8.50
2023-03-07T11:28:45.000Z,8.53
2023-03-07T11:30:54.126Z,8.51
2023-03-07T11:33:03.844Z,8.48
2023-03-07T11:35:15.784Z,8.54
2023-03-07T11:37:23.714Z,8.45
2023-03-07T11:39:38.954Z,8.49
2023-03-07T11:41:46.178Z,8.36
2023-03-07T11:43:54.675Z,8.42
2023-03-07T11:46:08.098Z,8.43
2023-03-07T11:48:21.237Z,8.47
2023-03-07T11:50:30.284Z,8.57
2023-03-07T11:52:34.277Z,8.48
2023-03-07T11:54:46.661Z,8.55
2023-03-07T11:56:54.574Z,8.65
2023-03-07T11:59:08.105Z,8.65
2023-03-07T12:01:12.942Z,8.70
2023-03-07T12:03:25.409Z,8.73
2023-03-07T12:05:31.568Z,8.77
2023-03-07T12:07:37.256Z,8.87
2023-03-07T12:09:45.778Z,8.91
2023-03-07T12:11:54.857Z,8.86
2023-03-07T12:14:03.787Z,8.87
2023-03-07T12:16:11.702Z,8.91
2023-03-07T12:18:17.560Z,9.07
2023-03-07T12:20:28.541Z,8.98
2023-03-07T12:22:37.230Z,9.12
2023-03-07T12:24:46.039Z,9.09
2023-03-07T12:26:57.238Z,9.13
2023-03-07T12:29:04.265Z,9.11
2023-03-07T12:31:11.404Z,9.13
2023-03-07T12:33:27.058Z,9.14
2023-03-07T12:35:42.601Z,9.03
2023-03-07T12:37:52.932Z,9.11
2023-03-07T12:40:02.735Z,9.16
2023-03-07T12:42:15.403Z,9.12
2023-03-07T12:44:33.644Z,9.15
2023-03-07T12:46:43.803Z,9.11
2023-03-07T12:48:54.099Z,9.11
2023-03-07T12:51:05.100Z,9.23
2023-03-07T12:53:13.941Z,9.28
2023-03-07T12:55:25.206Z,9.29
2023-03-07T12:57:34.521Z,9.32
2023-03-07T12:59:43.248Z,9.40
2023-03-07T13:02:01.817Z,9.41
2023-03-07T13:04:15.081Z,9.29
2023-03-07T13:06:23.333Z,9.49
2023-03-07T13:08:28.859Z,9.40
2023-03-07T13:10:32.291Z,9.42
2023-03-07T13:12:37.358Z,9.52
2023-03-07T13:14:45.640Z,9.54
2023-03-07T13:16:48.451Z,9.44
2023-03-07T13:18:53.115Z,9.40
2023-03-07T13:21:07.409Z,9.38
2023-03-07T13:23:21.475Z,9.24
2023-03-07T13:25:27.076Z,9.24
2023-03-07T13:27:44.830Z,9.12
2023-03-07T13:29:53.879Z,8.85
2023-03-07T13:31:59.451Z,8.67
2023-03-07T13:34:24.838Z,8.63
2023-03-07T13:36:34.960Z,8.60
2023-03-07T13:38:40.923Z,8.55
2023-03-07T13:40:45.103Z,8.37
2023-03-07T13:42:52.520Z,8.35
2023-03-07T13:44:57.179Z,8.27
2023-03-07T13:47:01.715Z,8.24
2023-03-07T13:49:04.217Z,8.09
2023-03-07T13:51:09.405Z,8.12
2023-03-07T13:53:17.384Z,8.14
2023-03-07T13:55:26.022Z,8.09
2023-03-07T13:57:37.731Z,7.97
2023-03-07T13:59:49.861Z,7.98
2023-03-07T14:01:58.585Z,7.88
2023-03-07T14:04:07.392Z,7.92
2023-03-07T14:06:17.700Z,7.85
2023-03-07T14:08:26.963Z,7.76
2023-03-07T14:10:31.770Z,7.73
2023-03-07T14:12:45.641Z,7.63
2023-03-07T14:14:57.623Z,7.65
2023-03-07T14:17:06.449Z,7.68
2023-03-07T14:19:13.662Z,7.58
2023-03-07T14:21:20.527Z,7.50
2023-03-07T14:23:31.716Z,7.51
2023-03-07T14:25:38.722Z,7.53
2023-03-07T14:27:47.302Z,7.56
2023-03-07T14:29:54.786Z,7.54
2023-03-07T14:31:59.643Z,7.60
2023-03-07T14:34:04.366Z,7.61
2023-03-07T14:36:13.117Z,7.55
2023-03-07T14:38:21.717Z,7.57
2023-03-07T14:40:30.840Z,7.58
2023-03-07T14:42:36.521Z,7.62
2023-03-07T14:44:47.404Z,7.66
2023-03-07T14:46:52.759Z,7.62
2023-03-07T14:49:01.548Z,7.63
2023-03-07T14:51:16.674Z,7.66
2023-03-07T14:53:26.278Z,7.59
2023-03-07T14:55:36.577Z,7.57
2023-03-07T14:57:46.291Z,7.61
2023-03-07T14:59:54.658Z,7.65
2023-03-07T15:01:58.899Z,7.59
2023-03-07T15:04:02.879Z,7.59
2023-03-07T15:06:14.285Z,7.57
2023-03-07T15:08:21.641Z,7.62
2023-03-07T15:10:30.513Z,7.52
2023-03-07T15:12:33.671Z,7.57
2023-03-07T15:14:46.985Z,7.56
2023-03-07T15:16:57.313Z,7.53
2023-03-07T15:19:04.561Z,7.61
2023-03-07T15:21:12.729Z,7.59
2023-03-07T15:23:22.514Z,7.60
2023-03-07T15:25:26.201Z,7.63
2023-03-07T15:27:31.776Z,7.64
2023-03-07T15:29:34.584Z,7.62
2023-03-07T15:31:42.986Z,7.68
2023-03-07T15:33:45.189Z,7.62
2023-03-07T15:36:09.653Z,7.53
2023-03-07T15:38:19.152Z,7.49
2023-03-07T15:40:22.595Z,7.50
2023-03-07T15:42:24.890Z,7.51
2023-03-07T15:44:27.200Z,7.41
2023-03-07T15:46:31.910Z,7.29
2023-03-07T15:48:43.412Z,7.37
2023-03-07T15:50:54.137Z,7.41
2023-03-07T15:53:06.636Z,7.49
2023-03-07T15:55:19.083Z,7.50
2023-03-07T15:57:25.908Z,7.55
2023-03-07T15:59:34.096Z,7.59
2023-03-07T16:01:36.613Z,7.56
2023-03-07T16:03:49.669Z,7.53
2023-03-07T16:05:52.697Z,7.57
2023-03-07T16:07:57.260Z,7.62
2023-03-07T16:10:01.946Z,7.65
2023-03-07T16:12:05.881Z,7.70
2023-03-07T16:14:22.574Z,7.67
2023-03-07T16:16:28.933Z,7.67
2023-03-07T16:18:35.176Z,7.60
2023-03-07T16:20:37.409Z,7.55
2023-03-07T16:22:39.620Z,7.44
2023-03-07T16:24:42.758Z,7.51
2023-03-07T16:26:47.008Z,7.59
2023-03-07T16:28:52.763Z,7.65
2023-03-07T16:30:57.940Z,7.71
2023-03-07T16:33:00.443Z,7.73
2023-03-07T16:35:02.743Z,7.75
2023-03-07T16:37:07.476Z,7.79
2023-03-07T16:39:11.319Z,7.87
2023-03-07T16:41:17.982Z,7.87
2023-03-07T16:43:24.241Z,7.86
2023-03-07T16:45:28.994Z,7.86
2023-03-07T16:47:31.650Z,7.90
2023-03-07T16:49:33.960Z,7.92
2023-03-07T16:51:36.279Z,7.97
2023-03-07T16:53:38.829Z,7.98
2023-03-07T16:55:41.718Z,7.93
2023-03-07T16:57:48.779Z,7.98
2023-03-07T16:59:51.801Z,7.99
2023-03-07T17:01:55.128Z,7.86
2023-03-07T17:03:57.922Z,7.93
2023-03-07T17:06:00.751Z,7.89
2023-03-07T17:08:03.187Z,7.89
2023-03-07T17:10:08.565Z,7.94
2023-03-07T17:12:11.873Z,7.94
2023-03-07T17:14:16.577Z,7.88
2023-03-07T17:16:20.696Z,7.84
2023-03-07T17:18:23.762Z,7.79
2023-03-07T17:20:26.843Z,7.76
2023-03-07T17:22:31.967Z,7.68
2023-03-07T17:24:34.943Z,7.54
2023-03-07T17:26:43.422Z,7.64
2023-03-07T17:28:46.876Z,7.66
2023-03-07T17:30:50.422Z,7.71
2023-03-07T17:32:53.684Z,7.72
2023-03-07T17:34:55.962Z,7.62
2023-03-07T17:37:00.607Z,7.63
2023-03-07T17:39:03.079Z,7.65
2023-03-07T17:41:08.402Z,7.62
2023-03-07T17:43:18.957Z,7.62
2023-03-07T17:45:23.159Z,7.69
2023-03-07T17:47:27.812Z,7.69
2023-03-07T17:49:35.932Z,7.66
2023-03-07T17:51:39.835Z,7.57
2023-03-07T17:53:45.911Z,7.53
2023-03-07T17:55:50.308Z,7.56
2023-03-07T17:57:53.091Z,7.51
2023-03-07T17:59:56.681Z,7.42
2023-03-07T18:01:59.391Z,7.39
2023-03-07T18:04:06.638Z,7.38
2023-03-07T18:06:09.329Z,7.36
2023-03-07T18:08:14.598Z,7.37
2023-03-07T18:10:17.668Z,7.37
2023-03-07T18:12:26.512Z,7.40
2023-03-07T18:14:32.757Z,7.40
2023-03-07T18:16:38.036Z,7.40
2023-03-07T18:18:57.770Z,7.38
2023-03-07T18:21:07.025Z,7.39
2023-03-07T18:23:09.733Z,7.39
2023-03-07T18:25:15.913Z,7.39
2023-03-07T18:27:18.772Z,7.40
2023-03-07T18:29:23.333Z,7.36
2023-03-07T18:31:29.001Z,7.40
2023-03-07T18:33:32.774Z,7.38
2023-03-07T18:35:37.869Z,7.44
2023-03-07T18:37:40.379Z,7.46
2023-03-07T18:39:43.148Z,7.49
2023-03-07T18:41:45.597Z,7.47
2023-03-07T18:43:48.606Z,7.55
2023-03-07T18:45:51.338Z,7.48
2023-03-07T18:47:54.203Z,7.47
2023-03-07T18:49:58.034Z,7.37
2023-03-07T18:52:00.573Z,7.20
2023-03-07T18:54:04.107Z,7.23
2023-03-07T18:56:08.598Z,7.21
2023-03-07T18:58:11.236Z,7.22
2023-03-07T19:00:16.575Z,7.24
2023-03-07T19:02:19.260Z,7.10
2023-03-07T19:04:21.963Z,7.21
2023-03-07T19:06:26.268Z,7.17
2023-03-07T19:08:29.045Z,7.19
2023-03-07T19:10:35.151Z,7.22
2023-03-07T19:12:41.870Z,7.17
2023-03-07T19:14:44.751Z,7.12
2023-03-07T19:16:49.750Z,7.10
2023-03-07T19:18:54.298Z,7.12
2023-03-07T19:20:59.127Z,7.08
2023-03-07T19:23:02.397Z,7.10
2023-03-07T19:25:07.021Z,7.16
2023-03-07T19:27:10.386Z,7.07
2023-03-07T19:29:14.090Z,6.98
2023-03-07T19:31:19.845Z,7.07
2023-03-07T19:33:25.553Z,7.06
2023-03-07T19:35:29.622Z,6.99
2023-03-07T19:37:32.898Z,6.99
2023-03-07T19:39:37.820Z,6.99
2023-03-07T19:41:41.079Z,6.98
2023-03-07T19:43:43.429Z,6.89
2023-03-07T19:45:45.655Z,6.88
2023-03-07T19:47:50.943Z,6.86
2023-03-07T19:49:53.343Z,6.98
2023-03-07T19:51:56.352Z,6.98
2023-03-07T19:53:59.301Z,6.96
2023-03-07T19:56:09.498Z,7.06
2023-03-07T19:58:12.292Z,7.06
2023-03-07T20:00:15.792Z,6.97
2023-03-07T20:02:21.372Z,6.93
2023-03-07T20:04:28.585Z,6.96
2023-03-07T20:06:32.964Z,6.97
2023-03-07T20:08:36.630Z,6.94
2023-03-07T20:10:41.122Z,6.94
2023-03-07T20:12:45.050Z,6.93
2023-03-07T20:14:48.994Z,6.95
2023-03-07T20:16:53.043Z,6.77
2023-03-07T20:18:57.698Z,6.86
2023-03-07T20:21:06.234Z,6.86
2023-03-07T20:23:11.361Z,6.84
2023-03-07T20:25:15.598Z,6.81
2023-03-07T20:27:22.568Z,6.90
2023-03-07T20:29:25.534Z,6.94
2023-03-07T20:31:28.066Z,6.90
2023-03-07T20:33:30.560Z,6.86
2023-03-07T20:35:33.386Z,7.02
2023-03-07T20:37:36.264Z,6.99
2023-03-07T20:39:43.756Z,7.02
2023-03-07T20:41:45.851Z,7.06
2023-03-07T20:43:48.929Z,7.11
2023-03-07T20:45:50.911Z,7.08
2023-03-07T20:47:53.163Z,6.99
2023-03-07T20:49:55.285Z,7.00
2023-03-07T20:51:57.309Z,6.88
2023-03-07T20:54:02.813Z,7.00
2023-03-07T20:56:06.375Z,6.82
2023-03-07T20:58:08.475Z,6.91
2023-03-07T21:00:11.754Z,6.79
2023-03-07T21:02:13.758Z,6.79
2023-03-07T21:04:18.581Z,6.78
2023-03-07T21:06:23.410Z,6.79
2023-03-07T21:08:26.689Z,6.66
2023-03-07T21:10:29.042Z,6.70
2023-03-07T21:12:31.119Z,6.54
2023-03-07T21:14:33.067Z,6.58
2023-03-07T21:16:35.028Z,6.55
2023-03-07T21:18:38.606Z,6.53
2023-03-07T21:20:41.840Z,6.41
2023-03-07T21:22:47.326Z,6.51
2023-03-07T21:24:51.129Z,6.55
2023-03-07T21:26:54.257Z,6.55
2023-03-07T21:28:59.899Z,6.54
2023-03-07T21:31:05.887Z,6.52
2023-03-07T21:33:08.021Z,6.62
2023-03-07T21:35:12.654Z,6.56
2023-03-07T21:37:16.317Z,6.55
2023-03-07T21:39:18.881Z,6.49
2023-03-07T21:41:26.112Z,6.43
2023-03-07T21:43:29.197Z,6.36
2023-03-07T21:45:33.749Z,6.49
2023-03-07T21:47:38.386Z,6.44
2023-03-07T21:49:41.137Z,6.39
2023-03-07T21:51:44.390Z,6.40
2023-03-07T21:53:46.531Z,6.38
2023-03-07T21:55:54.967Z,6.50
2023-03-07T21:57:56.956Z,6.40
2023-03-07T22:00:00.214Z,6.46
2023-03-07T22:02:02.633Z,6.48
2023-03-07T22:04:04.498Z,6.55
2023-03-07T22:06:08.430Z,6.46
2023-03-07T22:08:10.718Z,6.54
2023-03-07T22:10:12.605Z,6.49
2023-03-07T22:12:14.566Z,6.32
2023-03-07T22:14:16.412Z,6.31
2023-03-07T22:16:21.632Z,6.20
2023-03-07T22:18:25.930Z,6.29
2023-03-07T22:20:27.983Z,6.39
2023-03-07T22:22:29.946Z,6.26
2023-03-07T22:24:32.420Z,6.21
2023-03-07T22:26:34.322Z,6.15
2023-03-07T22:28:36.817Z,6.18
2023-03-07T22:30:38.792Z,6.13
2023-03-07T22:32:43.713Z,6.26
2023-03-07T22:34:45.612Z,6.17
2023-03-07T22:36:51.323Z,6.21
2023-03-07T22:38:55.457Z,6.31
2023-03-07T22:41:01.567Z,6.35
2023-03-07T22:43:03.525Z,6.30
2023-03-07T22:45:06.259Z,6.26
2023-03-07T22:47:08.308Z,6.26
2023-03-07T22:49:11.248Z,6.29
2023-03-07T22:51:15.409Z,6.23
2023-03-07T22:53:17.577Z,6.24
2023-03-07T22:55:20.089Z,6.14
2023-03-07T22:57:25.928Z,6.19
2023-03-07T22:59:28.261Z,6.17
2023-03-07T23:01:30.516Z,6.20
2023-03-07T23:03:32.435Z,6.21
2023-03-07T23:05:36.428Z,6.29
2023-03-07T23:07:38.573Z,6.23
2023-03-07T23:09:40.697Z,6.32
2023-03-07T23:12:53.933Z,6.26
2023-03-07T23:14:59.274Z,6.24
2023-03-07T23:17:01.487Z,6.20
2023-03-07T23:19:03.867Z,6.17
2023-03-07T23:21:07.387Z,6.05
2023-03-07T23:23:09.553Z,6.10
2023-03-07T23:25:12.287Z,6.12
2023-03-07T23:27:14.142Z,6.09
2023-03-07T23:29:16.107Z,6.28
2023-03-07T23:31:21.878Z,6.22
2023-03-07T23:33:24.451Z,6.17
2023-03-07T23:35:29.942Z,5.94
2023-03-07T23:37:31.992Z,6.09
2023-03-07T23:39:33.868Z,6.22
2023-03-07T23:41:36.238Z,6.18
2023-03-07T23:43:38.499Z,6.12
2023-03-07T23:45:41.046Z,6.20
2023-03-07T23:47:43.110Z,6.15
2023-03-07T23:49:45.012Z,6.17
2023-03-07T23:51:47.003Z,6.11
2023-03-07T23:53:49.132Z,6.02
2023-03-07T23:55:51.058Z,6.12
2023-03-07T23:57:53.195Z,6.19
2023-03-07T23:59:55.108Z,6.04
